createdAt,value
2022-08-19T00:01:45.435Z,6.00
2022-08-19T00:04:24.381Z,4.37
2022-08-19T00:06:54.648Z,6.57
2022-08-19T00:09:23.843Z,6.20
2022-08-19T00:11:52.997Z,6.93
2022-08-19T00:14:21.532Z,5.67
2022-08-19T00:16:52.703Z,5.17
2022-08-19T00:19:20.381Z,5.17
2022-08-19T00:21:48.913Z,5.83
2022-08-19T00:24:18.739Z,5.60
2022-08-19T00:26:47.254Z,5.83
2022-08-19T00:29:17.594Z,6.83
2022-08-19T00:31:45.965Z,5.70
2022-08-19T00:34:14.896Z,5.50
2022-08-19T00:36:44.064Z,4.67
2022-08-19T00:39:12.106Z,5.30
2022-08-19T00:41:42.420Z,6.27
2022-08-19T00:44:14.687Z,5.67
2022-08-19T00:46:55.627Z,5.37
2022-08-19T00:49:36.389Z,5.13
2022-08-19T00:52:09.748Z,4.67
2022-08-19T00:54:39.983Z,7.20
2022-08-19T00:57:13.990Z,6.40
2022-08-19T01:00:00.273Z,5.27
2022-08-19T01:02:32.265Z,6.50
2022-08-19T01:05:02.174Z,6.10
2022-08-19T01:07:37.664Z,7.87
2022-08-19T01:10:09.648Z,6.77
2022-08-19T01:12:39.196Z,5.93
2022-08-19T01:15:08.722Z,7.57
2022-08-19T01:17:38.063Z,7.17
2022-08-19T01:20:06.327Z,6.77
2022-08-19T01:22:41.405Z,5.97
2022-08-19T01:25:14.993Z,8.23
2022-08-19T01:27:46.226Z,8.33
2022-08-19T01:30:17.595Z,7.33
2022-08-19T01:32:45.939Z,8.97
2022-08-19T01:35:17.857Z,8.03
2022-08-19T01:37:51.609Z,8.03
2022-08-19T01:40:21.301Z,8.07
2022-08-19T01:42:50.531Z,8.07
2022-08-19T01:45:19.236Z,10.77
2022-08-19T01:48:01.196Z,9.83
2022-08-19T01:50:31.752Z,9.50
2022-08-19T01:53:06.657Z,8.97
2022-08-19T01:55:40.779Z,9.17
2022-08-19T01:58:14.230Z,8.83
2022-08-19T02:00:42.811Z,8.87
2022-08-19T02:03:12.234Z,8.77
2022-08-19T02:05:40.306Z,9.93
2022-08-19T02:08:10.222Z,9.00
2022-08-19T02:10:41.605Z,9.63
2022-08-19T02:13:10.113Z,10.23
2022-08-19T02:15:38.513Z,9.40
2022-08-19T02:18:08.551Z,12.80
2022-08-19T02:20:37.322Z,12.10
2022-08-19T02:23:05.733Z,12.60
2022-08-19T02:25:43.347Z,12.53
2022-08-19T02:28:13.672Z,13.10
2022-08-19T02:30:44.088Z,15.13
2022-08-19T02:33:12.642Z,12.67
2022-08-19T02:35:43.587Z,12.47
2022-08-19T02:38:29.708Z,13.27
2022-08-19T02:41:01.826Z,11.97
2022-08-19T02:43:33.760Z,12.67
2022-08-19T02:46:03.070Z,13.63
2022-08-19T02:48:31.409Z,12.03
2022-08-19T02:50:59.084Z,11.03
2022-08-19T02:53:29.921Z,12.03
2022-08-19T02:55:58.977Z,11.60
2022-08-19T02:58:28.105Z,12.93
2022-08-19T03:00:57.627Z,9.27
2022-08-19T03:03:25.958Z,10.60
2022-08-19T03:05:56.796Z,11.17
2022-08-19T03:08:26.971Z,12.30
2022-08-19T03:10:54.828Z,13.10
2022-08-19T03:13:24.730Z,12.40
2022-08-19T03:15:52.515Z,12.70
2022-08-19T03:18:20.899Z,14.23
2022-08-19T03:20:55.441Z,16.63
2022-08-19T03:23:24.559Z,15.80
2022-08-19T03:25:58.183Z,13.80
2022-08-19T03:28:36.261Z,14.70
2022-08-19T03:31:42.099Z,16.07
2022-08-19T03:33:55.375Z,15.80
2022-08-19T03:36:25.807Z,16.00
2022-08-19T03:38:59.725Z,15.63
2022-08-19T03:41:34.222Z,14.80
2022-08-19T03:44:17.853Z,17.53
2022-08-19T03:46:47.622Z,17.63
2022-08-19T03:49:18.416Z,18.17
2022-08-19T03:51:47.934Z,16.43
2022-08-19T03:54:18.796Z,17.07
2022-08-19T03:56:48.363Z,18.00
2022-08-19T03:59:21.224Z,17.70
2022-08-19T04:01:49.018Z,21.97
2022-08-19T04:04:17.138Z,22.17
2022-08-19T04:06:48.176Z,22.33
2022-08-19T04:09:17.325Z,22.60
2022-08-19T04:11:47.550Z,24.57
2022-08-19T04:14:19.650Z,25.13
2022-08-19T04:16:48.539Z,22.10
2022-08-19T04:19:18.034Z,21.70
2022-08-19T04:21:46.858Z,24.07
2022-08-19T04:24:16.310Z,20.27
2022-08-19T04:26:44.511Z,23.37
2022-08-19T04:29:15.609Z,22.27
2022-08-19T04:31:46.433Z,23.67
2022-08-19T04:34:17.178Z,20.70
2022-08-19T04:36:46.470Z,19.67
2022-08-19T04:39:18.366Z,22.50
2022-08-19T04:42:03.562Z,19.30
2022-08-19T04:44:33.459Z,18.67
2022-08-19T04:47:11.227Z,17.23
2022-08-19T04:49:40.111Z,18.00
2022-08-19T04:52:08.323Z,14.97
2022-08-19T04:54:38.688Z,17.40
2022-08-19T04:57:10.532Z,18.30
2022-08-19T04:59:39.094Z,15.70
2022-08-19T05:02:09.265Z,14.23
2022-08-19T05:04:40.518Z,15.20
2022-08-19T05:07:09.045Z,20.30
2022-08-19T05:09:56.713Z,22.27
2022-08-19T05:12:28.899Z,20.27
2022-08-19T05:14:59.024Z,22.13
2022-08-19T05:17:31.234Z,20.17
2022-08-19T05:20:19.866Z,21.03
2022-08-19T05:22:49.647Z,18.70
2022-08-19T05:25:20.829Z,19.20
2022-08-19T05:27:49.499Z,21.27
2022-08-19T05:30:33.368Z,22.87
2022-08-19T05:33:11.029Z,17.60
2022-08-19T05:35:40.402Z,21.10
2022-08-19T05:38:09.262Z,21.67
2022-08-19T05:40:38.357Z,19.53
2022-08-19T05:43:07.749Z,21.33
2022-08-19T05:45:42.633Z,22.37
2022-08-19T05:48:12.988Z,18.43
2022-08-19T05:50:43.598Z,21.73
2022-08-19T05:53:11.464Z,23.53
2022-08-19T05:55:40.981Z,21.10
2022-08-19T05:58:08.947Z,17.83
2022-08-19T06:00:37.645Z,18.37
2022-08-19T06:03:12.782Z,18.93
2022-08-19T06:05:50.397Z,19.63
2022-08-19T06:08:20.626Z,17.47
2022-08-19T06:11:14.716Z,16.07
2022-08-19T06:13:42.361Z,18.70
2022-08-19T06:16:10.339Z,20.13
2022-08-19T06:18:38.011Z,15.10
2022-08-19T06:21:07.417Z,18.03
2022-08-19T06:23:35.802Z,16.63
2022-08-19T06:26:03.761Z,16.77
2022-08-19T06:28:31.383Z,15.63
2022-08-19T06:30:59.117Z,13.57
2022-08-19T06:33:26.745Z,15.67
2022-08-19T06:35:54.711Z,15.90
2022-08-19T06:38:24.406Z,12.97
2022-08-19T06:40:52.459Z,12.83
2022-08-19T06:43:20.123Z,15.43
2022-08-19T06:45:48.426Z,12.53
2022-08-19T06:48:17.052Z,13.70
2022-08-19T06:50:46.314Z,15.17
2022-08-19T06:53:14.442Z,14.10
2022-08-19T06:55:44.159Z,15.50
2022-08-19T06:58:11.799Z,15.60
2022-08-19T07:00:41.665Z,15.57
2022-08-19T07:03:09.928Z,16.40
2022-08-19T07:05:45.758Z,17.70
2022-08-19T07:08:14.447Z,13.10
2022-08-19T07:10:46.875Z,19.03
2022-08-19T07:13:14.530Z,14.77
2022-08-19T07:15:42.183Z,16.53
2022-08-19T07:18:11.632Z,16.93
2022-08-19T07:20:40.423Z,17.30
2022-08-19T07:23:09.811Z,18.67
2022-08-19T07:25:41.238Z,16.57
2022-08-19T07:28:20.185Z,16.30
2022-08-19T07:30:53.696Z,17.70
2022-08-19T07:33:21.982Z,15.97
2022-08-19T07:35:50.750Z,19.10
2022-08-19T07:38:18.748Z,17.13
2022-08-19T07:40:47.478Z,17.30
2022-08-19T07:43:17.965Z,18.07
2022-08-19T07:45:46.410Z,13.40
2022-08-19T07:48:15.345Z,18.33
2022-08-19T07:50:43.089Z,19.77
2022-08-19T07:53:10.988Z,21.30
2022-08-19T07:55:41.061Z,20.60
2022-08-19T07:58:14.120Z,21.37
2022-08-19T08:00:43.553Z,24.10
2022-08-19T08:03:11.471Z,23.40
2022-08-19T08:05:57.200Z,25.20
2022-08-19T08:08:44.269Z,26.10
2022-08-19T08:11:17.662Z,28.17
2022-08-19T08:14:01.137Z,28.23
2022-08-19T08:16:39.404Z,29.00
2022-08-19T08:19:18.217Z,22.73
2022-08-19T08:21:51.814Z,26.33
2022-08-19T08:24:21.171Z,32.90
2022-08-19T08:26:52.188Z,26.40
2022-08-19T08:29:26.120Z,27.07
2022-08-19T08:32:00.163Z,26.10
2022-08-19T08:34:28.112Z,24.93
2022-08-19T08:36:56.127Z,19.97
2022-08-19T08:39:23.788Z,22.67
2022-08-19T08:41:58.205Z,22.50
2022-08-19T08:44:34.119Z,19.70
2022-08-19T08:47:13.374Z,18.97
2022-08-19T08:49:45.555Z,20.90
2022-08-19T08:52:17.739Z,20.40
2022-08-19T08:54:54.823Z,19.37
2022-08-19T08:57:37.011Z,21.37
2022-08-19T09:00:15.539Z,18.40
2022-08-19T09:02:50.553Z,17.47
2022-08-19T09:05:22.154Z,17.37
2022-08-19T09:07:59.990Z,14.63
2022-08-19T09:10:33.812Z,15.43
2022-08-19T09:13:13.184Z,14.03
2022-08-19T09:15:48.830Z,22.00
2022-08-19T09:18:19.493Z,14.13
2022-08-19T09:20:49.370Z,15.67
2022-08-19T09:23:17.691Z,16.73
2022-08-19T09:25:45.857Z,11.57
2022-08-19T09:28:22.088Z,9.50
2022-08-19T09:30:49.982Z,8.23
2022-08-19T09:33:21.971Z,9.23
2022-08-19T09:35:53.609Z,10.63
2022-08-19T09:38:22.065Z,7.57
2022-08-19T09:40:50.055Z,11.93
2022-08-19T09:43:33.249Z,11.33
2022-08-19T09:46:02.007Z,9.60
2022-08-19T09:48:31.091Z,11.63
2022-08-19T09:51:05.265Z,10.73
2022-08-19T09:53:33.674Z,13.73
2022-08-19T09:56:04.144Z,11.43
2022-08-19T09:58:32.081Z,12.17
2022-08-19T10:01:02.406Z,10.83
2022-08-19T10:03:34.259Z,10.13
2022-08-19T10:06:05.026Z,11.13
2022-08-19T10:08:50.324Z,8.70
2022-08-19T10:11:28.621Z,8.03
2022-08-19T10:14:07.699Z,7.73
2022-08-19T10:16:40.346Z,6.10
2022-08-19T10:19:10.165Z,7.40
2022-08-19T10:21:38.434Z,7.43
2022-08-19T10:24:09.353Z,7.43
2022-08-19T10:26:40.615Z,5.60
2022-08-19T10:29:09.452Z,4.50
2022-08-19T10:32:02.097Z,5.73
2022-08-19T10:34:28.620Z,4.50
2022-08-19T10:37:00.756Z,5.10
2022-08-19T10:39:31.508Z,5.77
2022-08-19T10:42:01.354Z,4.63
2022-08-19T10:44:32.353Z,4.60
2022-08-19T10:47:00.989Z,4.67
2022-08-19T10:49:30.135Z,5.90
2022-08-19T10:52:19.074Z,5.00
2022-08-19T10:55:08.623Z,5.03
2022-08-19T11:00:26.835Z,6.63
2022-08-19T11:02:54.783Z,8.13
2022-08-19T11:05:24.269Z,7.60
2022-08-19T11:07:53.143Z,8.87
2022-08-19T11:10:22.509Z,9.17
2022-08-19T11:12:53.998Z,7.03
2022-08-19T11:15:21.705Z,8.67
2022-08-19T11:17:49.447Z,7.23
2022-08-19T11:20:17.283Z,8.03
2022-08-19T11:22:46.290Z,8.83
2022-08-19T11:25:15.604Z,9.93
2022-08-19T11:27:44.470Z,9.93
2022-08-19T11:30:14.887Z,10.33
2022-08-19T11:32:48.532Z,10.53
2022-08-19T11:35:17.200Z,9.83
2022-08-19T11:37:46.791Z,9.27
2022-08-19T11:40:14.490Z,9.60
2022-08-19T11:42:57.624Z,7.73
2022-08-19T11:45:25.919Z,8.33
2022-08-19T11:47:55.007Z,8.60
2022-08-19T11:50:24.245Z,7.43
2022-08-19T11:52:56.069Z,7.63
2022-08-19T11:55:24.517Z,7.10
2022-08-19T11:57:52.651Z,4.90
2022-08-19T12:00:21.143Z,5.73
2022-08-19T12:02:49.423Z,5.27
2022-08-19T12:05:17.159Z,4.27
2022-08-19T12:07:44.818Z,3.47
2022-08-19T12:10:14.162Z,2.93
2022-08-19T12:12:47.398Z,4.30
2022-08-19T12:15:24.552Z,4.23
2022-08-19T12:17:53.453Z,4.47
2022-08-19T12:20:21.213Z,3.93
2022-08-19T12:22:49.419Z,4.13
2022-08-19T12:25:18.846Z,3.40
2022-08-19T12:27:57.214Z,5.20
2022-08-19T12:30:26.593Z,4.03
2022-08-19T12:32:55.226Z,3.53
2022-08-19T12:35:22.893Z,3.00
2022-08-19T12:37:56.748Z,4.20
2022-08-19T12:40:26.750Z,4.70
2022-08-19T12:42:55.271Z,3.43
2022-08-19T12:45:23.418Z,3.07
2022-08-19T12:47:54.990Z,3.57
2022-08-19T12:50:23.021Z,3.90
2022-08-19T12:52:51.015Z,3.00
2022-08-19T12:55:19.566Z,3.17
2022-08-19T12:57:50.056Z,2.70
2022-08-19T13:00:21.932Z,3.17
2022-08-19T13:02:52.755Z,2.00
2022-08-19T13:05:24.875Z,3.40
2022-08-19T13:07:56.811Z,2.43
2022-08-19T13:10:27.372Z,2.07
2022-08-19T13:12:57.913Z,2.27
2022-08-19T13:15:25.654Z,2.80
2022-08-19T13:17:57.572Z,1.70
2022-08-19T13:20:26.723Z,2.23
2022-08-19T13:22:55.815Z,3.27
2022-08-19T13:25:23.469Z,3.40
2022-08-19T13:27:51.925Z,3.10
2022-08-19T13:30:39.710Z,2.47
2022-08-19T13:33:16.089Z,2.93
2022-08-19T13:35:47.099Z,3.13
2022-08-19T13:38:17.345Z,3.47
2022-08-19T13:40:45.046Z,3.27
2022-08-19T13:43:22.444Z,3.97
2022-08-19T13:45:54.726Z,4.30
2022-08-19T13:48:22.779Z,3.73
2022-08-19T13:50:50.525Z,4.33
2022-08-19T13:53:19.766Z,4.00
2022-08-19T13:55:47.537Z,4.43
2022-08-19T13:58:15.427Z,4.20
2022-08-19T14:00:45.970Z,4.37
2022-08-19T14:03:15.942Z,4.37
2022-08-19T14:05:43.671Z,4.77
2022-08-19T14:08:15.485Z,3.47
2022-08-19T14:10:45.171Z,2.50
2022-08-19T14:13:17.821Z,2.90
2022-08-19T14:15:46.289Z,2.80
2022-08-19T14:18:15.705Z,3.53
2022-08-19T14:20:44.121Z,2.53
2022-08-19T14:23:13.204Z,2.30
2022-08-19T14:25:41.143Z,1.30
2022-08-19T14:28:09.362Z,1.90
2022-08-19T14:30:39.317Z,1.77
2022-08-19T14:33:09.578Z,1.47
2022-08-19T14:35:39.286Z,1.57
2022-08-19T14:38:09.376Z,0.87
2022-08-19T14:40:37.128Z,1.10
2022-08-19T14:43:06.871Z,1.37
2022-08-19T14:45:36.719Z,1.43
2022-08-19T14:48:05.291Z,0.70
2022-08-19T14:50:33.429Z,1.57
2022-08-19T14:53:11.837Z,1.93
2022-08-19T14:55:43.828Z,1.37
2022-08-19T14:58:28.375Z,0.83
2022-08-19T15:00:59.277Z,0.90
2022-08-19T15:03:27.056Z,1.47
2022-08-19T15:05:55.460Z,1.10
2022-08-19T15:08:25.768Z,1.60
2022-08-19T15:10:53.798Z,1.73
2022-08-19T15:13:22.212Z,1.33
2022-08-19T15:15:50.224Z,1.13
2022-08-19T15:18:18.177Z,1.57
2022-08-19T15:20:46.699Z,1.30
2022-08-19T15:23:15.293Z,1.40
2022-08-19T15:25:45.395Z,0.97
2022-08-19T15:28:13.489Z,1.33
2022-08-19T15:30:42.624Z,1.33
2022-08-19T15:33:14.100Z,1.20
2022-08-19T15:35:43.046Z,1.40
2022-08-19T15:38:13.779Z,1.93
2022-08-19T15:40:44.407Z,1.53
2022-08-19T15:43:12.224Z,1.93
2022-08-19T15:45:46.285Z,1.43
2022-08-19T15:48:16.531Z,1.47
2022-08-19T15:50:44.916Z,1.87
2022-08-19T15:53:12.703Z,1.90
2022-08-19T15:55:47.808Z,1.83
2022-08-19T15:58:33.937Z,2.10
2022-08-19T16:01:23.641Z,2.23
2022-08-19T16:04:13.741Z,2.63
2022-08-19T16:06:44.242Z,3.17
2022-08-19T16:09:13.071Z,2.00
2022-08-19T16:11:45.800Z,1.23
2022-08-19T16:14:15.061Z,1.63
2022-08-19T16:16:47.069Z,0.73
2022-08-19T16:19:16.940Z,1.77
2022-08-19T16:21:46.027Z,1.17
2022-08-19T16:24:16.694Z,3.63
2022-08-19T16:26:47.360Z,5.53
2022-08-19T16:29:22.150Z,4.80
2022-08-19T16:32:02.803Z,7.83
2022-08-19T16:34:32.527Z,7.03
2022-08-19T16:37:01.501Z,8.40
2022-08-19T16:39:29.721Z,7.57
2022-08-19T16:41:58.899Z,7.20
2022-08-19T16:44:29.444Z,8.30
2022-08-19T16:46:59.570Z,7.97
2022-08-19T16:49:53.184Z,7.40
2022-08-19T16:52:17.306Z,7.47
2022-08-19T16:54:45.261Z,7.90
2022-08-19T16:57:14.710Z,6.87
2022-08-19T16:59:48.696Z,5.97
2022-08-19T17:02:17.843Z,7.53
2022-08-19T17:04:57.097Z,7.60
2022-08-19T17:07:26.143Z,8.03
2022-08-19T17:09:53.774Z,7.50
2022-08-19T17:12:30.405Z,7.30
2022-08-19T17:15:02.631Z,8.00
2022-08-19T17:17:31.317Z,7.97
2022-08-19T17:20:00.648Z,6.47
2022-08-19T17:22:28.776Z,6.23
2022-08-19T17:24:58.108Z,7.87
2022-08-19T17:27:32.466Z,5.93
2022-08-19T17:30:02.914Z,6.40
2022-08-19T17:32:31.060Z,6.10
2022-08-19T17:34:58.768Z,7.90
2022-08-19T17:37:28.395Z,5.63
2022-08-19T17:39:56.189Z,7.37
2022-08-19T17:42:24.454Z,5.33
2022-08-19T17:44:53.761Z,5.73
2022-08-19T17:47:21.398Z,4.43
2022-08-19T17:49:49.043Z,7.37
2022-08-19T17:52:17.160Z,5.80
2022-08-19T17:54:44.921Z,6.03
2022-08-19T17:57:14.030Z,5.30
2022-08-19T17:59:41.731Z,5.10
2022-08-19T18:02:12.921Z,5.70
2022-08-19T18:04:41.933Z,5.47
2022-08-19T18:07:11.688Z,5.70
2022-08-19T18:09:42.879Z,5.23
2022-08-19T18:12:18.169Z,4.83
2022-08-19T18:14:46.378Z,5.60
2022-08-19T18:17:19.469Z,5.80
2022-08-19T18:19:48.627Z,7.07
2022-08-19T18:22:24.834Z,5.90
2022-08-19T18:24:52.573Z,7.40
2022-08-19T18:27:21.151Z,6.30
2022-08-19T18:29:49.192Z,7.10
2022-08-19T18:32:23.742Z,6.07
2022-08-19T18:34:52.465Z,5.93
2022-08-19T18:37:20.953Z,7.00
2022-08-19T18:40:07.414Z,6.67
2022-08-19T18:42:53.381Z,7.57
2022-08-19T18:45:39.311Z,5.47
2022-08-19T18:48:30.496Z,8.63
2022-08-19T18:51:00.200Z,8.03
2022-08-19T18:53:31.141Z,8.57
2022-08-19T18:55:59.619Z,8.37
2022-08-19T18:58:32.198Z,7.87
2022-08-19T19:01:01.399Z,8.67
2022-08-19T19:03:30.409Z,8.03
2022-08-19T19:05:58.827Z,7.17
2022-08-19T19:08:26.810Z,10.17
2022-08-19T19:10:56.429Z,10.60
2022-08-19T19:13:24.246Z,9.47
2022-08-19T19:15:52.662Z,9.83
2022-08-19T19:18:20.306Z,9.80
2022-08-19T19:20:49.698Z,9.83
2022-08-19T19:23:17.674Z,10.07
2022-08-19T19:25:50.942Z,11.20
2022-08-19T19:28:25.116Z,10.27
2022-08-19T19:30:54.361Z,8.77
2022-08-19T19:33:22.152Z,9.03
2022-08-19T19:35:52.124Z,10.93
2022-08-19T19:38:19.931Z,11.67
2022-08-19T19:40:47.581Z,10.60
2022-08-19T19:43:17.359Z,12.47
2022-08-19T19:45:46.789Z,11.63
2022-08-19T19:48:16.460Z,12.00
2022-08-19T19:50:45.377Z,12.57
2022-08-19T19:53:15.045Z,11.83
2022-08-19T19:55:42.892Z,13.10
2022-08-19T19:58:10.821Z,13.27
2022-08-19T20:00:38.477Z,12.40
2022-08-19T20:03:07.028Z,13.80
2022-08-19T20:05:34.697Z,12.63
2022-08-19T20:08:19.928Z,12.73
2022-08-19T20:10:48.958Z,13.90
2022-08-19T20:13:16.699Z,14.77
2022-08-19T20:15:44.677Z,16.80
2022-08-19T20:18:14.427Z,16.97
2022-08-19T20:20:43.258Z,16.60
2022-08-19T20:23:11.109Z,16.63
2022-08-19T20:25:39.652Z,18.27
2022-08-19T20:28:09.124Z,22.37
2022-08-19T20:30:37.755Z,20.53
2022-08-19T20:33:08.532Z,19.93
2022-08-19T20:35:37.800Z,22.00
2022-08-19T20:38:08.665Z,22.87
2022-08-19T20:40:38.166Z,27.57
2022-08-19T20:43:10.540Z,24.47
2022-08-19T20:45:38.612Z,27.70
2022-08-19T20:48:09.237Z,23.23
2022-08-19T20:50:37.386Z,22.83
2022-08-19T20:53:10.659Z,24.33
2022-08-19T20:55:38.293Z,24.03
2022-08-19T20:58:05.983Z,21.40
2022-08-19T21:00:35.061Z,23.10
2022-08-19T21:03:03.429Z,21.47
2022-08-19T21:05:31.223Z,21.50
2022-08-19T21:07:59.104Z,23.87
2022-08-19T21:10:27.463Z,22.23
2022-08-19T21:12:55.359Z,20.43
2022-08-19T21:15:24.533Z,17.23
2022-08-19T21:17:53.771Z,15.77
2022-08-19T21:20:21.748Z,13.87
2022-08-19T21:22:49.636Z,13.83
2022-08-19T21:25:18.674Z,14.90
2022-08-19T21:27:46.567Z,13.77
2022-08-19T21:30:14.918Z,12.67
2022-08-19T21:32:42.558Z,12.03
2022-08-19T21:35:11.623Z,10.50
2022-08-19T21:37:39.242Z,12.73
2022-08-19T21:40:08.797Z,11.50
2022-08-19T21:42:37.702Z,12.00
2022-08-19T21:45:06.810Z,12.87
2022-08-19T21:47:34.446Z,9.83
2022-08-19T21:50:02.411Z,9.33
2022-08-19T21:52:31.406Z,9.83
2022-08-19T21:54:59.066Z,9.30
2022-08-19T21:57:27.215Z,8.63
2022-08-19T21:59:55.332Z,8.13
2022-08-19T22:02:23.029Z,7.50
2022-08-19T22:04:51.887Z,8.43
2022-08-19T22:07:21.814Z,8.53
2022-08-19T22:09:52.115Z,7.97
2022-08-19T22:12:24.943Z,9.17
2022-08-19T22:14:53.965Z,11.03
2022-08-19T22:17:22.344Z,11.10
2022-08-19T22:19:51.192Z,10.27
2022-08-19T22:22:24.080Z,10.37
2022-08-19T22:24:53.707Z,10.40
2022-08-19T22:27:22.120Z,11.83
2022-08-19T22:29:52.636Z,11.47
2022-08-19T22:32:28.296Z,12.80
2022-08-19T22:35:00.797Z,12.40
2022-08-19T22:37:31.767Z,12.00
2022-08-19T22:40:05.484Z,12.00
2022-08-19T22:42:33.431Z,12.17
2022-08-19T22:45:01.439Z,16.30
2022-08-19T22:47:32.306Z,13.80
2022-08-19T22:50:04.210Z,13.30
2022-08-19T22:52:31.671Z,15.90
2022-08-19T22:55:06.203Z,15.97
2022-08-19T22:57:34.099Z,18.47
2022-08-19T23:00:01.799Z,18.90
2022-08-19T23:02:34.455Z,19.77
2022-08-19T23:05:04.052Z,18.83
2022-08-19T23:07:32.010Z,20.70
2022-08-19T23:10:00.985Z,21.07
2022-08-19T23:12:31.508Z,19.70
2022-08-19T23:15:03.563Z,21.50
2022-08-19T23:17:31.285Z,22.70
2022-08-19T23:20:00.336Z,21.80
2022-08-19T23:22:29.319Z,21.60
2022-08-19T23:24:57.234Z,24.50
2022-08-19T23:27:43.959Z,23.90
2022-08-19T23:30:27.714Z,22.97
2022-08-19T23:32:56.972Z,25.43
2022-08-19T23:35:27.245Z,24.27
2022-08-19T23:37:55.033Z,24.73
2022-08-19T23:40:22.829Z,24.87
2022-08-19T23:42:52.369Z,25.37
2022-08-19T23:45:23.894Z,25.77
2022-08-19T23:47:53.370Z,27.03
2022-08-19T23:50:21.967Z,26.67
2022-08-19T23:52:52.605Z,28.17
2022-08-19T23:55:24.651Z,26.40
2022-08-19T23:57:54.157Z,25.53
